CheckWX is a tool to help pilots better visualize weather data.  It is not intended as a substitute for an official pre-flight weather briefing.

06:19:56 UTC

ESKN METAR
Stockholm Skavsta Airport
Stockholm / Nyköping, Sweden
Current

30 mins ago

ESKN 230550Z 14005KT CAVOK 08/06 Q1027
Observed
Apr-23 @ 05:50 UTC
Wind
  • 140° at 5 KTS
Visibility
10,000+ meters
Flight Rules
VFR
Cloud Levels
  • Clear skies
Temperature
C / 46°F
Dewpoint
C / 43°F
Humidity
87%
Altimeter
30.32" Hg
Pressure
1026.92 hPa
Previous

60 mins ago

ESKN 230520Z 12003KT 090V160 CAVOK 07/07 Q1027
Observed
Apr-23 @ 05:20 UTC
Wind
  • 120° at 3 KTS
Visibility
10,000+ meters
Flight Rules
VFR
Cloud Levels
  • Clear skies
Temperature
C / 45°F
Dewpoint
C / 45°F
Humidity
100%
Altimeter
30.32" Hg
Pressure
1026.92 hPa
Previous

1 hour ago

ESKN 230450Z VRB03KT 6000 MIFG NSC 05/05 Q1026
Observed
Apr-23 @ 04:50 UTC
Wind
  • Variable at 3 KTS
Visibility
6,003 meters
Flight Rules
MVFR
Conditions
Shallow Fog
Cloud Levels
  • Clear skies
Temperature
C / 41°F
Dewpoint
C / 41°F
Humidity
100%
Altimeter
30.3" Hg
Pressure
1025.92 hPa